Time;durP1;ratioP1;P1;durP2;ratioP2;P2;SDS_P1;SDS_P2;PMS_P1;PMS_P2;Temp;Humidity;BMP_temperature;BMP_pressure;BME280_temperature;BME280_humidity;BME280_pressure;Samples;Min_cycle;Max_cycle;Signal;HPM_P1;HPM_P2
2022/01/07 00:00:16;;;;;;;;;;;;;;;-0.49;100.00;100929.25;5033587;28;20524;-71
2022/01/07 00:03:01;;;;;;;39.92;17.42;;;;;;;-0.42;100.00;100933.34;5033214;28;19967;-71
2022/01/07 00:05:44;;;;;;;35.75;14.52;;;;;;;-0.44;100.00;100932.56;5033972;28;20079;-72
2022/01/07 00:08:29;;;;;;;36.90;14.80;;;;;;;-0.56;100.00;100930.41;5033062;28;20091;-71
2022/01/07 00:11:13;;;;;;;30.73;16.20;;;;;;;-0.61;100.00;100937.59;5032608;28;20064;-71
2022/01/07 00:13:57;;;;;;;;;;;;;;;-0.62;100.00;100939.34;5034355;28;20056;-70
2022/01/07 00:16:41;;;;;;;39.72;15.40;;;;;;;-0.64;100.00;100942.94;5032512;28;19920;-71
2022/01/07 00:19:25;;;;;;;;;;;;;;;-0.68;100.00;100928.25;5034253;28;20091;-72
2022/01/07 00:22:09;;;;;;;39.22;16.67;;;;;;;-0.64;100.00;100941.16;5033771;28;19923;-72
2022/01/07 00:24:53;;;;;;;35.55;16.15;;;;;;;-0.56;100.00;100931.25;5018356;28;20099;-72
2022/01/07 00:27:36;;;;;;;;;;;;;;;-0.46;100.00;100921.28;5033721;28;20134;-72
2022/01/07 00:30:21;;;;;;;55.78;19.75;;;;;;;-0.43;100.00;100915.94;5032480;28;20378;-71
2022/01/07 00:33:06;;;;;;;47.45;20.20;;;;;;;-0.36;100.00;100912.13;5032317;28;20080;-71
2022/01/07 00:35:52;;;;;;;54.50;20.67;;;;;;;-0.35;100.00;100914.72;5032650;28;20088;-71
2022/01/07 00:38:36;;;;;;;48.72;19.23;;;;;;;-0.40;100.00;100915.81;5032562;28;20103;-72
2022/01/07 00:41:20;;;;;;;54.40;21.33;;;;;;;-0.32;100.00;100911.97;5032341;28;20056;-71
2022/01/07 00:44:04;;;;;;;;;;;;;;;-0.36;100.00;100910.38;5033664;28;20056;-71
2022/01/07 00:46:47;;;;;;;26.25;11.63;;;;;;;-0.46;100.00;100911.66;5033204;28;19984;-71
2022/01/07 00:49:31;;;;;;;;;;;;;;;-0.57;100.00;100913.84;5032800;28;20454;-72
2022/01/07 00:52:16;;;;;;;53.25;19.55;;;;;;;-0.51;100.00;100897.03;5018253;28;19963;-72
2022/01/07 00:55:00;;;;;;;40.28;18.15;;;;;;;-0.51;100.00;100903.16;5032097;28;20511;-72
2022/01/07 00:57:45;;;;;;;34.72;18.30;;;;;;;-0.54;100.00;100903.25;5031753;28;20048;-72
2022/01/07 01:00:29;;;;;;;39.80;18.38;;;;;;;-0.51;100.00;100886.56;5031842;28;20053;-71
2022/01/07 01:03:13;;;;;;;36.65;16.85;;;;;;;-0.56;100.00;100897.22;5017964;28;20056;-71
2022/01/07 01:05:58;;;;;;;;;;;;;;;-0.59;100.00;100899.09;5033412;28;20128;-71
2022/01/07 01:08:42;;;;;;;41.30;18.58;;;;;;;-0.53;100.00;100898.88;5031842;28;20067;-72
2022/01/07 01:11:26;;;;;;;;;;;;;;;-0.49;100.00;100909.19;5018400;28;20107;-72
2022/01/07 01:14:10;;;;;;;43.60;19.77;;;;;;;-0.46;100.00;100895.09;5031847;28;19920;-71
2022/01/07 01:16:55;;;;;;;37.00;18.80;;;;;;;-0.41;100.00;100898.38;5032362;28;20095;-71
2022/01/07 01:19:39;;;;;;;55.83;23.73;;;;;;;-0.22;100.00;100892.34;5031676;28;20115;-72
2022/01/07 01:22:24;;;;;;;42.85;20.00;;;;;;;-0.18;100.00;100900.94;5031632;28;20107;-71
2022/01/07 01:25:08;;;;;;;30.45;15.90;;;;;;;-0.38;100.00;100900.88;5031775;28;20150;-72
2022/01/07 01:27:53;;;;;;;38.58;16.55;;;;;;;-0.38;100.00;100901.75;5031661;28;20040;-70
2022/01/07 01:30:38;;;;;;;30.55;14.88;;;;;;;-0.41;100.00;100893.97;5032687;28;20412;-71
2022/01/07 01:33:22;;;;;;;36.55;15.18;;;;;;;-0.39;100.00;100896.56;5031439;28;20089;-71
2022/01/07 01:36:08;;;;;;;;;;;;;;;-0.17;100.00;100897.41;5032703;28;20460;-72
2022/01/07 01:38:52;;;;;;;52.10;20.23;;;;;;;-0.12;100.00;100891.06;5031502;28;20289;-71
2022/01/07 01:41:36;;;;;;;46.17;18.67;;;;;;;-0.18;100.00;100895.69;5031413;28;20052;-70
2022/01/07 01:44:20;;;;;;;;;;;;;;;-0.12;100.00;100884.97;5031911;28;20096;-72
2022/01/07 01:47:04;;;;;;;50.55;20.85;;;;;;;0.02;100.00;100886.94;5017264;28;19919;-72
2022/01/07 01:49:48;;;;;;;50.55;22.23;;;;;;;0.07;100.00;100873.66;5033604;28;20183;-72
2022/01/07 01:52:32;;;;;;;;;;;;;;;0.07;100.00;100879.75;5035914;28;20136;-71
2022/01/07 01:55:17;;;;;;;;;;;;;;;0.02;100.00;100873.84;5021805;28;19951;-70
2022/01/07 01:58:01;;;;;;;45.13;20.85;;;;;;;0.02;100.00;100873.84;5034993;28;19919;-71
2022/01/07 02:00:44;;;;;;;;;;;;;;;0.08;100.00;100877.97;5021781;28;20151;-71
2022/01/07 02:03:28;;;;;;;42.28;19.80;;;;;;;0.10;100.00;100879.63;5036406;28;19948;-71
2022/01/07 02:06:14;;;;;;;47.85;20.08;;;;;;;0.09;100.00;100875.31;5034934;28;20119;-72
2022/01/07 02:08:58;;;;;;;34.40;17.25;;;;;;;0.03;100.00;100874.72;5035150;28;20115;-72
2022/01/07 02:11:42;;;;;;;38.47;16.98;;;;;;;-0.02;100.00;100872.28;5021031;28;20064;-71
2022/01/07 02:14:26;;;;;;;;;;;;;;;-0.03;100.00;100878.44;5021233;28;20087;-71
2022/01/07 02:17:10;;;;;;;32.97;16.30;;;;;;;0.01;100.00;100871.31;5035557;28;19967;-71
2022/01/07 02:19:54;;;;;;;;;;;;;;;0.14;100.00;100873.31;5035373;28;20052;-71
2022/01/07 02:22:38;;;;;;;26.77;13.80;;;;;;;0.09;100.00;100870.06;5020732;28;20038;-71
2022/01/07 02:25:22;;;;;;;25.92;13.43;;;;;;;0.02;100.00;100863.34;5021048;28;20084;-71
2022/01/07 02:28:07;;;;;;;29.85;13.52;;;;;;;0.11;100.00;100862.13;5020809;28;20483;-71
2022/01/07 02:30:51;;;;;;;28.00;13.32;;;;;;;0.15;100.00;100858.47;5035043;28;20103;-71
2022/01/07 02:33:35;;;;;;;;;;;;;;;0.20;100.00;100857.34;5034817;28;20048;-71
2022/01/07 02:36:19;;;;;;;26.00;13.02;;;;;;;0.34;100.00;100854.13;5034724;28;20395;-71
2022/01/07 02:39:02;;;;;;;;;;;;;;;0.38;100.00;100851.31;5020896;28;20109;-72
2022/01/07 02:41:46;;;;;;;25.75;12.57;;;;;;;0.47;100.00;100850.91;5034561;28;19924;-69
2022/01/07 02:44:30;;;;;;;21.90;11.90;;;;;;;0.62;100.00;100852.00;5034579;28;20504;-71
2022/01/07 02:47:15;;;;;;;25.05;11.75;;;;;;;0.63;100.00;100844.06;5034366;28;20063;-71
2022/01/07 02:50:05;;;;;;;21.83;10.95;;;;;;;0.58;100.00;100832.94;5035454;28;20043;-71
2022/01/07 02:52:49;;;;;;;24.52;12.38;;;;;;;0.63;100.00;100825.69;5034154;28;20071;-71
2022/01/07 02:55:33;;;;;;;22.60;11.10;;;;;;;0.65;100.00;100823.84;5020363;28;20083;-71
2022/01/07 02:58:17;;;;;;;18.73;11.93;;;;;;;0.58;100.00;100817.19;5033755;28;20048;-71
2022/01/07 03:01:01;;;;;;;;;;;;;;;0.55;100.00;100826.97;5034681;28;20052;-72
2022/01/07 03:03:45;;;;;;;17.05;10.88;;;;;;;0.51;100.00;100821.00;5033963;28;19920;-72
2022/01/07 03:06:30;;;;;;;21.90;10.60;;;;;;;0.47;100.00;100814.19;5033689;28;20118;-71
2022/01/07 03:09:13;;;;;;;24.55;11.05;;;;;;;0.49;100.00;100817.59;5030054;22;20077;-71
2022/01/07 03:11:57;;;;;;;23.17;10.75;;;;;;;0.52;100.00;100814.81;5000121;28;20052;-72
2022/01/07 03:14:41;;;;;;;;;;;;;;;0.56;100.00;100821.66;5001257;28;20120;-72
2022/01/07 03:17:25;;;;;;;25.23;11.48;;;;;;;0.57;100.00;100820.72;5000774;28;19983;-72
2022/01/07 03:20:12;;;;;;;20.38;10.95;;;;;;;0.57;100.00;100823.34;5015817;28;20049;-72
2022/01/07 03:22:56;;;;;;;21.30;10.25;;;;;;;0.65;100.00;100829.09;5015903;28;20053;-73
2022/01/07 03:25:41;;;;;;;;;;;;;;;0.68;100.00;100821.09;5015646;28;20072;-72
2022/01/07 03:28:25;;;;;;;23.80;10.15;;;;;;;0.71;100.00;100826.19;5013942;28;19959;-73
2022/01/07 03:31:08;;;;;;;22.02;10.63;;;;;;;0.70;100.00;100826.25;5013805;28;20065;-72
2022/01/07 03:33:52;;;;;;;;;;;;;;;0.77;100.00;100823.31;5014388;28;20053;-72
2022/01/07 03:36:36;;;;;;;19.90;9.52;;;;;;;0.86;100.00;100822.03;5000177;28;19923;-73
2022/01/07 03:39:20;;;;;;;20.55;10.05;;;;;;;0.93;100.00;100805.09;5014549;28;20104;-73
2022/01/07 03:42:04;;;;;;;;;;;;;;;1.01;100.00;100811.66;5014093;28;20445;-73
2022/01/07 03:44:48;;;;;;;21.60;8.68;;;;;;;1.03;100.00;100807.19;5014527;28;19920;-72
2022/01/07 03:47:32;;;;;;;21.85;10.10;;;;;;;0.99;100.00;100807.41;5013488;28;20500;-72
2022/01/07 03:50:18;;;;;;;22.23;11.60;;;;;;;0.98;100.00;100800.47;5013214;28;20108;-73
2022/01/07 03:53:02;;;;;;;26.00;11.27;;;;;;;0.96;100.00;100792.66;5014460;28;20060;-73
2022/01/07 03:55:46;;;;;;;24.65;11.35;;;;;;;0.87;100.00;100790.47;4999899;28;20104;-73
2022/01/07 03:58:30;;;;;;;;;;;;;;;0.92;100.00;100796.34;5014699;28;20068;-72
2022/01/07 04:01:14;;;;;;;27.27;12.07;;;;;;;0.92;100.00;100788.47;5013225;28;19920;-72
2022/01/07 04:03:58;;;;;;;;;;;;;;;0.85;100.00;100792.28;5014665;28;20129;-72
2022/01/07 04:06:42;;;;;;;21.45;12.35;;;;;;;0.87;100.00;100790.47;4999380;28;20342;-73
2022/01/07 04:09:26;;;;;;;;;;;;;;;0.89;100.00;100783.38;5014102;28;20108;-73
2022/01/07 04:12:10;;;;;;;28.38;13.00;;;;;;;0.84;100.00;100790.59;5012815;28;19920;-72
2022/01/07 04:15:16;;;;;;;;;;;;;;;0.76;100.00;100789.25;5014441;28;20052;-74
2022/01/07 04:17:58;;;;;;;23.27;11.60;;;;;;;0.79;100.00;100787.34;5013207;28;19966;-73
2022/01/07 04:20:42;;;;;;;25.40;14.20;;;;;;;0.69;100.00;100788.69;5012935;28;20057;-74
2022/01/07 04:23:26;;;;;;;;;;;;;;;0.73;100.00;100792.88;5013254;28;20111;-72
2022/01/07 04:26:09;;;;;;;29.97;14.23;;;;;;;0.75;100.00;100787.56;5013817;28;20472;-72
2022/01/07 04:28:53;;;;;;;29.80;14.10;;;;;;;0.72;100.00;100793.78;5012585;28;20739;-68
2022/01/07 04:31:37;;;;;;;;;;;;;;;0.75;100.00;100795.44;5013080;28;20508;-71
2022/01/07 04:34:21;;;;;;;32.45;15.13;;;;;;;0.71;100.00;100792.09;4998848;28;19960;-72
2022/01/07 04:37:05;;;;;;;31.60;16.15;;;;;;;0.74;100.00;100791.94;5012619;28;20465;-72
2022/01/07 04:39:49;;;;;;;33.35;14.48;;;;;;;0.77;100.00;100789.19;5012443;28;20532;-71
2022/01/07 04:42:33;;;;;;;32.38;15.60;;;;;;;0.75;100.00;100796.25;5012575;28;20513;-72
2022/01/07 04:45:17;;;;;;;30.73;14.88;;;;;;;0.82;100.00;100794.22;5012407;28;20169;-74
2022/01/07 04:48:01;;;;;;;;;;;;;;;0.86;100.00;100786.13;4999027;28;20044;-72
2022/01/07 04:50:44;;;;;;;27.35;13.77;;;;;;;0.91;100.00;100778.91;5013546;28;19933;-74
2022/01/07 04:53:28;;;;;;;;;;;;;;;1.11;100.00;100781.44;5013667;28;20137;-72
2022/01/07 04:56:12;;;;;;;31.90;15.68;;;;;;;1.19;100.00;100774.06;5012101;28;19967;-72
2022/01/07 04:58:56;;;;;;;;;;;;;;;1.29;100.00;100777.94;5013369;28;20135;-72
2022/01/07 05:01:40;;;;;;;26.85;14.93;;;;;;;1.40;100.00;100773.00;5012231;28;19921;-72
2022/01/07 05:04:24;;;;;;;;;;;;;;;1.37;100.00;100777.56;5012647;28;20096;-73
2022/01/07 05:07:08;;;;;;;26.23;13.52;;;;;;;1.42;100.00;100775.53;4998245;28;20343;-73
2022/01/07 05:09:52;;;;;;;25.52;14.23;;;;;;;1.46;100.00;100770.06;5011862;28;20421;-73
2022/01/07 05:12:36;;;;;;;28.05;14.20;;;;;;;1.52;100.00;100767.16;4998325;28;20540;-73
2022/01/07 05:15:20;;;;;;;26.23;14.50;;;;;;;1.51;100.00;100762.81;5011990;28;20045;-73
2022/01/07 05:18:04;;;;;;;25.95;15.75;;;;;;;1.55;100.00;100761.72;5011729;28;20127;-73
2022/01/07 05:20:48;;;;;;;25.65;14.38;;;;;;;1.54;100.00;100765.28;5012883;28;20099;-72
2022/01/07 05:23:31;;;;;;;;;;;;;;;1.54;100.00;100751.31;5013202;28;20197;-73
2022/01/07 05:26:16;;;;;;;24.42;13.13;;;;;;;1.56;100.00;100752.91;5011455;28;19924;-73
2022/01/07 05:28:59;;;;;;;;;;;;;;;1.49;100.00;100748.06;5013579;28;20347;-73
2022/01/07 05:31:43;;;;;;;24.35;13.10;;;;;;;1.50;100.00;100749.75;5011652;28;19920;-73
2022/01/07 05:34:27;;;;;;;;;;;;;;;1.53;100.00;100746.97;5012074;28;20049;-70
2022/01/07 05:37:11;;;;;;;25.35;13.48;;;;;;;1.55;100.00;100750.38;5013127;28;20024;-73
2022/01/07 05:39:57;;;;;;;;;;;;;;;1.56;100.00;100752.09;5011956;28;20052;-73
2022/01/07 05:42:40;;;;;;;24.85;12.85;;;;;;;1.55;100.00;100753.84;5012178;28;19928;-70
2022/01/07 05:45:24;;;;;;;;;;;;;;;1.58;100.00;100745.81;5013148;28;20064;-72
2022/01/07 05:48:08;;;;;;;23.23;11.63;;;;;;;1.52;100.00;100740.88;5012718;28;19922;-72
2022/01/07 05:50:52;;;;;;;;;;;;;;;1.60;100.00;100743.97;5012870;28;20048;-70
2022/01/07 05:53:36;;;;;;;24.45;12.45;;;;;;;1.60;100.00;100741.34;5013010;28;20301;-73
2022/01/07 05:56:20;;;;;;;25.88;13.27;;;;;;;1.59;100.00;100736.16;5011842;28;20629;-72
2022/01/07 05:59:04;;;;;;;;;;;;;;;1.59;100.00;100730.91;5011680;28;20053;-72
2022/01/07 06:01:48;;;;;;;24.02;13.02;;;;;;;1.58;100.00;100731.84;5012905;28;19919;-71
2022/01/07 06:04:32;;;;;;;26.70;13.07;;;;;;;1.56;100.00;100718.75;5011685;28;20056;-73
2022/01/07 06:07:16;;;;;;;;;;;;;;;1.63;100.00;100721.91;5012041;28;20092;-72
2022/01/07 06:10:00;;;;;;;21.70;12.50;;;;;;;1.62;100.00;100717.59;5011316;28;19920;-73
2022/01/07 06:12:44;;;;;;;26.98;14.25;;;;;;;1.63;100.00;100717.53;5011487;28;20513;-71
2022/01/07 06:15:28;;;;;;;;;;;;;;;1.62;100.00;100713.22;5012022;28;20057;-71
2022/01/07 06:18:12;;;;;;;26.60;13.18;;;;;;;1.65;100.00;100715.66;5011437;28;20032;-74
2022/01/07 06:20:56;;;;;;;;;;;;;;;1.69;100.00;100717.22;4997890;28;20103;-70
2022/01/07 06:23:40;;;;;;;26.67;12.82;;;;;;;1.66;100.00;100711.28;5012251;28;19920;-72
2022/01/07 06:26:23;;;;;;;;;;;;;;;1.70;100.00;100715.44;5012787;28;20073;-72
2022/01/07 06:29:08;;;;;;;25.13;12.35;;;;;;;1.67;100.00;100705.91;5011357;28;19920;-73
2022/01/07 06:31:52;;;;;;;23.90;11.70;;;;;;;1.66;100.00;100713.91;5012443;28;20081;-70
2022/01/07 06:34:36;;;;;;;20.70;11.27;;;;;;;1.68;100.00;100715.50;5011524;28;20065;-73
2022/01/07 06:37:20;;;;;;;19.23;12.25;;;;;;;1.66;100.00;100706.84;5013906;28;20053;-73
2022/01/07 06:40:05;;;;;;;20.23;11.30;;;;;;;1.81;100.00;100706.09;5014879;28;20184;-72
2022/01/07 06:42:49;;;;;;;20.02;10.98;;;;;;;1.74;100.00;100709.94;5015844;28;20044;-73
2022/01/07 06:45:33;;;;;;;;;;;;;;;1.78;100.00;100711.47;5015297;28;20053;-72
2022/01/07 06:48:18;;;;;;;19.50;10.63;;;;;;;1.73;100.00;100713.50;5016089;28;19936;-73
2022/01/07 06:51:02;;;;;;;16.73;9.15;;;;;;;1.75;100.00;100706.38;5014425;28;20056;-72
2022/01/07 06:53:46;;;;;;;19.50;10.32;;;;;;;1.75;100.00;100698.50;5016093;28;20104;-72
2022/01/07 06:56:30;;;;;;;;;;;;;;;1.80;100.00;100688.63;5014692;28;20471;-72
2022/01/07 06:59:14;;;;;;;18.10;9.75;;;;;;;1.85;100.00;100688.38;5014334;28;19924;-72
2022/01/07 07:01:58;;;;;;;;;;;;;;;1.92;100.00;100692.38;5015983;28;20179;-72
2022/01/07 07:04:44;;;;;;;15.05;9.55;;;;;;;1.94;100.00;100691.38;5014278;28;20061;-72
2022/01/07 07:07:28;;;;;;;16.27;9.25;;;;;;;1.97;100.00;100688.56;5014288;28;20129;-72
2022/01/07 07:10:12;;;;;;;14.48;8.70;;;;;;;1.93;100.00;100694.06;5014979;28;20048;-72
2022/01/07 07:12:56;;;;;;;19.02;9.57;;;;;;;1.97;100.00;100691.19;5015688;28;20056;-72
2022/01/07 07:15:40;;;;;;;;;;;;;;;2.05;100.00;100673.25;5015458;28;20390;-72
2022/01/07 07:18:24;;;;;;;17.63;8.25;;;;;;;2.08;100.00;100683.59;5015144;28;20059;-72
2022/01/07 07:21:08;;;;;;;18.52;9.45;;;;;;;2.06;100.00;100685.47;5000634;28;20057;-72
2022/01/07 07:23:52;;;;;;;14.85;8.98;;;;;;;2.08;100.00;100691.47;5013943;28;20148;-73
2022/01/07 07:26:35;;;;;;;12.20;7.57;;;;;;;2.13;100.00;100689.47;5014434;28;20056;-73
2022/01/07 07:29:19;;;;;;;;;;;;;;;2.12;100.00;100689.53;5014408;28;20076;-71
2022/01/07 07:32:07;;;;;;;16.88;7.43;;;;;;;2.09;100.00;100687.91;5014943;28;19964;-72
2022/01/07 07:36:26;;;;;;;13.13;7.30;;;;;;;2.13;100.00;100688.59;5014893;28;20088;-73
2022/01/07 07:38:07;;;;;;;11.77;7.47;;;;;;;2.14;100.00;100690.31;5014031;28;20057;-72
2022/01/07 07:40:51;;;;;;;13.95;7.57;;;;;;;2.18;100.00;100679.53;5013616;28;20053;-70
2022/01/07 07:43:35;;;;;;;;;;;;;;;2.19;100.00;100665.47;5014278;28;20354;-71
2022/01/07 07:46:19;;;;;;;12.85;7.22;;;;;;;2.21;100.00;100671.50;4999753;28;20415;-72
2022/01/07 07:49:05;;;;;;;11.13;7.20;;;;;;;2.25;100.00;100670.41;5013312;28;20049;-72
2022/01/07 07:51:51;;;;;;;11.10;7.05;;;;;;;2.28;100.00;100670.22;5013429;28;20516;-71
2022/01/07 07:54:36;;;;;;;13.57;6.85;;;;;;;2.35;100.00;100665.47;5014572;28;20088;-73
2022/01/07 07:57:19;;;;;;;;;;;;;;;2.42;100.00;100657.19;5000341;28;20052;-72
2022/01/07 08:00:05;;;;;;;12.88;7.03;;;;;;;2.35;100.00;100671.59;5013280;28;19967;-72
2022/01/07 08:02:49;;;;;;;13.27;8.55;;;;;;;2.38;100.00;100649.53;5013095;28;20048;-73
2022/01/07 08:05:33;;;;;;;11.27;7.55;;;;;;;2.40;100.00;100648.50;5013702;28;20060;-72
2022/01/07 08:08:17;;;;;;;;;;;;;;;2.39;100.00;100649.44;4999438;28;20052;-72
2022/01/07 08:11:04;;;;;;;12.95;7.30;;;;;;;2.44;100.00;100644.78;5013841;28;20039;-71
2022/01/07 08:16:51;;;;;;;9.30;6.35;;;;;;;2.55;100.00;100643.28;5013111;28;20049;-71
2022/01/07 08:19:35;;;;;;;;;;;;;;;2.56;100.00;100644.13;5013212;28;20041;-73
2022/01/07 08:22:19;;;;;;;9.68;6.45;;;;;;;2.55;100.00;100638.00;5013055;28;19968;-73
2022/01/07 08:25:03;;;;;;;13.55;7.50;;;;;;;2.57;100.00;100648.44;5013048;28;20476;-72
2022/01/07 08:27:48;;;;;;;12.65;6.45;;;;;;;2.63;100.00;100629.69;5013558;28;20100;-73
2022/01/07 08:30:59;;;;;;;9.75;6.10;;;;;;;2.74;100.00;100629.94;5012666;28;20520;-72
2022/01/07 08:36:47;;;;;;;12.70;6.53;;;;;;;2.75;100.00;100621.09;5013062;28;20107;-73
2022/01/07 08:39:30;;;;;;;13.25;6.07;;;;;;;2.80;100.00;100622.53;4998480;28;20524;-73
2022/01/07 08:42:15;;;;;;;11.23;5.82;;;;;;;2.81;100.00;100628.63;5012680;28;20466;-72
2022/01/07 08:44:59;;;;;;;11.45;6.18;;;;;;;2.79;100.00;100612.94;4998854;28;20107;-72
2022/01/07 08:47:43;;;;;;;;;;;;;;;2.86;100.00;100623.97;5012880;28;20099;-72
2022/01/07 08:50:27;;;;;;;10.40;5.25;;;;;;;2.85;100.00;100615.19;5013397;28;19920;-72
2022/01/07 08:53:11;;;;;;;;;;;;;;;2.86;100.00;100610.78;5013655;28;20076;-72
2022/01/07 08:55:55;;;;;;;9.98;5.63;;;;;;;2.88;99.00;100619.44;5012576;28;19919;-72
2022/01/07 08:58:39;;;;;;;10.18;5.88;;;;;;;2.90;99.82;100618.44;5013135;28;20056;-72
2022/01/07 09:01:24;;;;;;;11.38;6.03;;;;;;;2.97;98.66;100618.94;5012405;28;20064;-72
2022/01/07 09:04:08;;;;;;;11.77;5.82;;;;;;;2.96;98.37;100619.88;5012140;28;20053;-72
2022/01/07 09:06:51;;;;;;;8.85;5.72;;;;;;;2.94;97.66;100613.84;5012082;28;20053;-72
2022/01/07 09:09:35;;;;;;;;;;;;;;;2.95;97.57;100631.34;5013571;28;20063;-72
2022/01/07 09:12:19;;;;;;;8.27;5.72;;;;;;;2.93;97.68;100622.69;5013937;28;20238;-72
2022/01/07 09:15:03;;;;;;;11.38;5.97;;;;;;;2.96;97.68;100627.75;5013341;28;20045;-73
2022/01/07 09:17:49;;;;;;;10.95;5.50;;;;;;;2.96;98.78;100627.75;5012128;28;20045;-72
2022/01/07 09:20:34;;;;;;;11.85;5.70;;;;;;;2.97;98.93;100626.81;5011798;28;20390;-72
2022/01/07 09:23:18;;;;;;;10.77;5.72;;;;;;;2.88;100.00;100624.72;5013213;28;20044;-70
2022/01/07 09:26:01;;;;;;;;;;;;;;;2.73;100.00;100625.59;5012379;28;20184;-67
2022/01/07 09:28:45;;;;;;;12.75;6.20;;;;;;;2.68;100.00;100625.00;5012043;28;20332;-71
2022/01/07 09:31:29;;;;;;;;;;;;;;;2.68;100.00;100638.16;4998647;28;20474;-71
2022/01/07 09:34:13;;;;;;;11.55;8.05;;;;;;;2.28;100.00;100669.41;5012367;28;19967;-73
2022/01/07 09:36:57;;;;;;;15.25;7.13;;;;;;;2.12;100.00;100643.06;5012121;28;20464;-73
2022/01/07 09:39:41;;;;;;;;;;;;;;;1.90;100.00;100652.16;5012392;28;20052;-70
2022/01/07 09:42:25;;;;;;;18.80;9.90;;;;;;;1.71;100.00;100654.94;5012016;28;19963;-73
2022/01/07 09:45:09;;;;;;;;;;;;;;;1.66;100.00;100659.56;5013369;28;20516;-72
2022/01/07 09:47:54;;;;;;;21.23;12.70;;;;;;;1.50;100.00;100663.91;5012418;28;19920;-72
2022/01/07 09:50:38;;;;;;;21.17;10.95;;;;;;;1.56;100.00;100647.81;5011754;28;20104;-72
2022/01/07 09:53:23;;;;;;;;;;;;;;;1.52;100.00;100635.78;5012469;28;20480;-73
2022/01/07 09:56:07;;;;;;;28.17;13.15;;;;;;;1.51;100.00;100647.22;5012711;28;19924;-74
2022/01/07 09:58:50;;;;;;;22.90;12.48;;;;;;;1.54;100.00;100640.97;4997859;28;20053;-73
2022/01/07 10:01:56;;;;;;;25.30;11.88;;;;;;;1.60;100.00;100644.13;4998161;28;20107;-74
2022/01/07 10:04:41;;;;;;;34.20;13.73;;;;;;;1.53;100.00;100645.34;5011501;28;20052;-72
2022/01/07 10:07:26;;;;;;;20.92;10.48;;;;;;;1.61;100.00;100643.19;5011737;28;20081;-74
2022/01/07 10:10:14;;;;;;;21.50;11.38;;;;;;;1.59;100.00;100636.31;5011556;28;20049;-74
2022/01/07 10:13:00;;;;;;;21.88;11.05;;;;;;;1.63;100.00;100627.31;5015604;28;20111;-74
2022/01/07 10:15:44;;;;;;;21.40;11.38;;;;;;;1.68;100.00;100618.25;5001700;28;20144;-73
2022/01/07 10:18:35;;;;;;;22.40;11.82;;;;;;;1.65;100.00;100621.06;5016618;28;20091;-74
2022/01/07 10:21:21;;;;;;;23.08;12.52;;;;;;;1.75;100.00;100622.28;5016269;28;20072;-74
2022/01/07 10:24:06;;;;;;;19.77;11.95;;;;;;;1.82;100.00;100607.03;5001476;28;20080;-74
2022/01/07 10:27:13;;;;;;;20.55;10.95;;;;;;;1.99;100.00;100614.88;5015293;28;20095;-73
2022/01/07 10:29:57;;;;;;;14.48;9.18;;;;;;;2.25;100.00;100604.63;5015348;28;20067;-72
2022/01/07 10:32:41;;;;;;;16.77;8.77;;;;;;;2.43;100.00;100607.09;5001539;28;20359;-72
2022/01/07 10:35:26;;;;;;;17.15;9.43;;;;;;;2.34;100.00;100600.66;5001276;28;20052;-73
2022/01/07 10:38:15;;;;;;;15.00;8.02;;;;;;;2.48;100.00;100598.94;5014650;28;20137;-72
2022/01/07 10:41:00;;;;;;;15.68;9.07;;;;;;;2.44;100.00;100592.16;5015724;28;20096;-71
2022/01/07 10:43:43;;;;;;;20.38;9.13;;;;;;;2.35;100.00;100592.69;5014782;28;20053;-73
2022/01/07 10:46:28;;;;;;;17.13;8.98;;;;;;;2.45;100.00;100588.59;5014691;28;20422;-74
2022/01/07 10:49:12;;;;;;;16.55;8.73;;;;;;;2.41;100.00;100584.47;5015023;28;20057;-70
2022/01/07 10:51:56;;;;;;;12.88;7.63;;;;;;;2.47;100.00;100582.31;5015877;28;20111;-68
2022/01/07 10:54:40;;;;;;;13.75;9.02;;;;;;;2.51;100.00;100583.00;5014811;28;20417;-73
2022/01/07 10:57:43;;;;;;;12.15;7.40;;;;;;;2.62;100.00;100578.81;5000612;28;20513;-73
2022/01/07 11:00:27;;;;;;;18.48;8.32;;;;;;;2.66;100.00;100579.50;5014576;28;20049;-74
2022/01/07 11:03:12;;;;;;;15.32;7.70;;;;;;;2.71;100.00;100574.84;5014617;28;20045;-73
2022/01/07 11:05:55;;;;;;;12.75;8.15;;;;;;;2.72;100.00;100571.25;5014330;28;20103;-72
2022/01/07 11:08:40;;;;;;;14.38;7.68;;;;;;;2.76;100.00;100562.25;5000640;28;20053;-72
2022/01/07 11:11:29;;;;;;;14.63;7.63;;;;;;;2.92;100.00;100553.34;5014454;28;20048;-73
2022/01/07 11:14:19;;;;;;;11.43;6.90;;;;;;;2.97;100.00;100550.47;5015450;28;20064;-72
2022/01/07 11:17:04;;;;;;;13.75;7.85;;;;;;;2.91;100.00;100577.13;5000429;28;20057;-74
2022/01/07 11:19:51;;;;;;;10.73;7.13;;;;;;;2.94;100.00;100567.28;5014310;28;20056;-73
2022/01/07 11:22:40;;;;;;;12.05;7.38;;;;;;;2.98;100.00;100557.41;5013512;28;20414;-73
2022/01/07 11:25:32;;;;;;;13.73;7.95;;;;;;;3.00;100.00;100560.81;5001076;28;20460;-72
2022/01/07 11:28:18;;;;;;;12.50;7.05;;;;;;;3.10;100.00;100556.69;5014337;28;20152;-73
2022/01/07 11:31:10;;;;;;;11.43;6.63;;;;;;;3.16;100.00;100551.06;5013768;28;20104;-73
2022/01/07 11:34:19;;;;;;;12.43;7.45;;;;;;;3.01;100.00;100552.81;5013702;28;20108;-73
2022/01/07 11:37:12;;;;;;;11.65;6.95;;;;;;;3.00;100.00;100555.53;5015385;28;20073;-74
2022/01/07 11:39:56;;;;;;;12.40;7.03;;;;;;;3.03;100.00;100552.75;4999741;28;20053;-72
2022/01/07 11:42:41;;;;;;;;;;;;;;;3.00;100.00;100547.63;5014357;28;20048;-73
2022/01/07 11:45:31;;;;;;;13.95;7.70;;;;;;;3.14;100.00;100542.41;5000144;28;19920;-74
2022/01/07 11:48:22;;;;;;;13.00;8.07;;;;;;;2.91;100.00;100550.81;5013809;28;20072;-74
2022/01/07 11:51:13;;;;;;;14.50;8.60;;;;;;;2.94;100.00;100545.38;5000334;28;20394;-73
2022/01/07 11:54:02;;;;;;;17.35;9.05;;;;;;;2.73;100.00;100546.63;5000004;28;20141;-71
2022/01/07 11:56:47;;;;;;;15.23;8.20;;;;;;;2.94;100.00;100534.84;5013541;28;20544;-73
2022/01/07 11:59:31;;;;;;;14.43;8.20;;;;;;;2.90;100.00;100530.69;5013340;28;20052;-73
2022/01/07 12:02:15;;;;;;;;;;;;;;;3.26;100.00;100534.59;5013936;28;20560;-73
2022/01/07 12:05:31;;;;;;;11.35;7.22;;;;;;;3.43;100.00;100521.28;5013249;28;19932;-73
2022/01/07 12:08:14;;;;;;;14.25;7.80;;;;;;;3.22;100.00;100519.06;5014393;28;20457;-72
2022/01/07 12:11:09;;;;;;;11.93;7.07;;;;;;;3.53;100.00;100508.41;5013192;28;20111;-72
2022/01/07 12:13:53;;;;;;;12.18;7.07;;;;;;;3.66;100.00;100514.59;5013022;28;20049;-73
2022/01/07 12:16:39;;;;;;;13.55;6.15;;;;;;;3.55;100.00;100512.59;5014007;28;20140;-73
2022/01/07 12:19:26;;;;;;;15.38;7.22;;;;;;;3.39;100.00;100505.75;5012984;28;20413;-73
2022/01/07 12:22:11;;;;;;;11.85;5.93;;;;;;;3.28;100.00;100510.81;5014139;28;20517;-73
2022/01/07 12:24:59;;;;;;;11.00;6.70;;;;;;;3.27;100.00;100496.81;5012971;28;20057;-72
2022/01/07 12:27:42;;;;;;;14.00;7.28;;;;;;;3.36;100.00;100492.75;5012747;28;20041;-73
2022/01/07 12:30:27;;;;;;;;;;;;;;;3.13;100.00;100488.03;4999234;28;20060;-72
2022/01/07 12:33:11;;;;;;;12.90;7.15;;;;;;;3.36;100.00;100490.13;5014061;28;20021;-73
2022/01/07 12:35:55;;;;;;;13.52;6.32;;;;;;;3.57;100.00;100494.91;5012251;28;20088;-73
2022/01/07 12:38:39;;;;;;;;;;;;;;;3.78;100.00;100482.19;4999100;28;20053;-70
2022/01/07 12:41:24;;;;;;;10.35;5.90;;;;;;;3.60;100.00;100483.31;5012689;28;19920;-70
2022/01/07 12:44:09;;;;;;;9.88;5.30;;;;;;;3.47;100.00;100483.22;5013125;28;20052;-73
2022/01/07 12:46:55;;;;;;;13.70;5.28;;;;;;;3.30;100.00;100480.81;4998905;28;20053;-72
2022/01/07 12:49:42;;;;;;;12.65;6.43;;;;;;;3.16;100.00;100488.69;5012583;28;20041;-74
2022/01/07 12:52:26;;;;;;;9.98;5.63;;;;;;;3.17;100.00;100487.78;5013362;28;20096;-72
2022/01/07 12:55:10;;;;;;;9.48;5.90;;;;;;;3.10;100.00;100488.22;5012599;28;20060;-73
2022/01/07 12:58:01;;;;;;;8.43;5.90;;;;;;;3.13;100.00;100482.78;5012690;28;20053;-72